Time;durP1;ratioP1;P1;durP2;ratioP2;P2;SDS_P1;SDS_P2;PMS_P1;PMS_P2;Temp;Humidity;BMP_temperature;BMP_pressure;BME280_temperature;BME280_humidity;BME280_pressure;Samples;Min_cycle;Max_cycle;Signal;HPM_P1;HPM_P2
2022/07/07 00:01:45;;;;;;;19.33;11.43;;;;;;;;;;5026571;28;20057;-71
2022/07/07 00:04:11;;;;;;;15.50;10.70;;;;;;;;;;5026572;28;20045;-70
2022/07/07 00:06:37;;;;;;;18.88;10.80;;;;;;;;;;5009392;28;20041;-71
2022/07/07 00:09:04;;;;;;;16.13;11.65;;;;;;;;;;5008717;28;20398;-70
2022/07/07 00:11:30;;;;;;;17.08;10.70;;;;;;;;;;5025726;28;20052;-71
2022/07/07 00:13:56;;;;;;;17.42;10.68;;;;;;;;;;4989715;28;20115;-71
2022/07/07 00:16:22;;;;;;;18.33;11.57;;;;;;;;;;5002678;28;20057;-71
2022/07/07 00:18:49;;;;;;;17.98;12.00;;;;;;;;;;4999807;28;20273;-71
2022/07/07 00:21:15;;;;;;;19.20;11.98;;;;;;;;;;5004718;28;20049;-71
2022/07/07 00:23:41;;;;;;;18.15;11.40;;;;;;;;;;5007208;28;20400;-71
2022/07/07 00:26:08;;;;;;;21.83;12.07;;;;;;;;;;5020705;28;20450;-71
2022/07/07 00:28:34;;;;;;;18.08;12.65;;;;;;;;;;4982757;28;20095;-71
2022/07/07 00:31:00;;;;;;;21.52;12.35;;;;;;;;;;4996508;28;20414;-69
2022/07/07 00:33:26;;;;;;;23.17;13.02;;;;;;;;;;4998634;28;20041;-70
2022/07/07 00:35:53;;;;;;;22.60;13.30;;;;;;;;;;5018179;28;20061;-70
2022/07/07 00:38:19;;;;;;;21.60;13.93;;;;;;;;;;5020763;28;20132;-71
2022/07/07 00:40:52;;;;;;;26.52;14.32;;;;;;;;;;5003051;28;20137;-71
2022/07/07 00:43:18;;;;;;;21.00;14.10;;;;;;;;;;4997689;28;20394;-71
2022/07/07 00:45:48;;;;;;;20.50;13.48;;;;;;;;;;5000341;28;20045;-71
2022/07/07 00:48:14;;;;;;;23.50;14.75;;;;;;;;;;5000546;28;20053;-70
2022/07/07 00:50:40;;;;;;;25.55;14.02;;;;;;;;;;5003455;28;20061;-71
2022/07/07 00:53:06;;;;;;;21.85;13.98;;;;;;;;;;5014318;28;20045;-70
2022/07/07 00:55:33;;;;;;;23.27;15.30;;;;;;;;;;5001823;28;20060;-70
2022/07/07 00:57:58;;;;;;;26.60;15.10;;;;;;;;;;5015770;28;20517;-70
2022/07/07 01:00:25;;;;;;;23.08;15.45;;;;;;;;;;5017254;28;20181;-70
2022/07/07 01:02:51;;;;;;;26.98;14.73;;;;;;;;;;5019924;28;20601;-70
2022/07/07 01:05:18;;;;;;;24.02;15.50;;;;;;;;;;5018310;28;20042;-71
2022/07/07 01:07:44;;;;;;;26.83;15.75;;;;;;;;;;4998447;28;20555;-70
2022/07/07 01:10:10;;;;;;;26.52;16.83;;;;;;;;;;5003109;28;20053;-70
2022/07/07 01:12:38;;;;;;;25.10;15.65;;;;;;;;;;5000554;28;20052;-69
2022/07/07 01:15:04;;;;;;;23.63;15.18;;;;;;;;;;5009012;28;20050;-70
2022/07/07 01:17:30;;;;;;;25.50;15.35;;;;;;;;;;5013909;28;20524;-70
2022/07/07 01:19:57;;;;;;;23.33;14.88;;;;;;;;;;5013060;28;20518;-71
2022/07/07 01:22:24;;;;;;;21.15;15.13;;;;;;;;;;5002660;28;20049;-70
2022/07/07 01:24:50;;;;;;;23.08;15.70;;;;;;;;;;4999855;28;20045;-71
2022/07/07 01:27:19;;;;;;;23.05;14.75;;;;;;;;;;5014064;28;20111;-70
2022/07/07 01:29:47;;;;;;;22.35;14.27;;;;;;;;;;5001884;28;20672;-70
2022/07/07 01:32:13;;;;;;;23.33;15.82;;;;;;;;;;4998801;28;20490;-70
2022/07/07 01:34:40;;;;;;;27.92;17.08;;;;;;;;;;4999873;28;20149;-70
2022/07/07 01:37:06;;;;;;;26.45;15.93;;;;;;;;;;5006750;28;20045;-69
2022/07/07 01:39:33;;;;;;;29.65;16.90;;;;;;;;;;4997702;28;20077;-69
2022/07/07 01:41:59;;;;;;;26.17;16.10;;;;;;;;;;5014853;28;20064;-70
2022/07/07 01:44:25;;;;;;;24.85;15.88;;;;;;;;;;5000336;28;20042;-70
2022/07/07 01:46:51;;;;;;;26.25;15.85;;;;;;;;;;5021885;28;20045;-70
2022/07/07 01:49:17;;;;;;;27.75;17.20;;;;;;;;;;4999722;28;20091;-71
2022/07/07 01:51:43;;;;;;;29.83;17.45;;;;;;;;;;5019550;28;20079;-70
2022/07/07 01:54:10;;;;;;;28.55;17.73;;;;;;;;;;4999696;28;20190;-71
2022/07/07 01:56:36;;;;;;;32.00;18.77;;;;;;;;;;4998848;28;20085;-71
2022/07/07 01:59:02;;;;;;;25.10;16.20;;;;;;;;;;5016476;28;20080;-71
2022/07/07 02:01:28;;;;;;;27.27;16.30;;;;;;;;;;5015065;28;20045;-70
2022/07/07 02:03:54;;;;;;;26.52;15.82;;;;;;;;;;5000879;28;20057;-71
2022/07/07 02:06:20;;;;;;;27.63;16.92;;;;;;;;;;5019409;28;20046;-70
2022/07/07 02:08:46;;;;;;;20.83;12.82;;;;;;;;;;4996109;28;20053;-70
2022/07/07 02:11:12;;;;;;;19.10;12.20;;;;;;;;;;4981246;28;20046;-71
2022/07/07 02:13:59;;;;;;;14.60;10.90;;;;;;;;;;5022149;28;20037;-70
2022/07/07 02:16:26;;;;;;;12.45;8.85;;;;;;;;;;5007210;28;20478;-71
2022/07/07 02:18:53;;;;;;;16.27;10.52;;;;;;;;;;4992076;28;20056;-70
2022/07/07 02:21:20;;;;;;;13.98;8.88;;;;;;;;;;5015464;28;20057;-71
2022/07/07 02:23:47;;;;;;;13.75;9.07;;;;;;;;;;4995134;28;20546;-70
2022/07/07 02:26:13;;;;;;;14.07;9.55;;;;;;;;;;4997997;28;20056;-71
2022/07/07 02:28:40;;;;;;;17.83;9.50;;;;;;;;;;5015232;28;20354;-71
2022/07/07 02:31:06;;;;;;;15.30;9.27;;;;;;;;;;5003071;28;20124;-70
2022/07/07 02:33:32;;;;;;;14.57;8.32;;;;;;;;;;5013786;28;20042;-70
2022/07/07 02:35:58;;;;;;;13.43;8.45;;;;;;;;;;5015802;28;20086;-70
2022/07/07 02:38:25;;;;;;;14.20;7.70;;;;;;;;;;5021054;28;20099;-70
2022/07/07 02:40:51;;;;;;;8.35;7.07;;;;;;;;;;5020915;28;20045;-71
2022/07/07 02:43:18;;;;;;;10.30;6.85;;;;;;;;;;5007034;28;20134;-71
2022/07/07 02:45:45;;;;;;;9.80;6.13;;;;;;;;;;5014385;28;20046;-71
2022/07/07 02:48:12;;;;;;;7.13;5.32;;;;;;;;;;5007275;28;20124;-70
2022/07/07 02:50:38;;;;;;;9.80;5.90;;;;;;;;;;5021355;28;20432;-69
2022/07/07 02:53:05;;;;;;;9.35;5.78;;;;;;;;;;5007609;28;20045;-70
2022/07/07 02:55:32;;;;;;;8.02;5.50;;;;;;;;;;5014329;28;20042;-70
2022/07/07 02:57:58;;;;;;;10.70;5.88;;;;;;;;;;5022778;28;20124;-70
2022/07/07 03:00:25;;;;;;;11.88;6.13;;;;;;;;;;5020004;28;20478;-70
2022/07/07 03:02:51;;;;;;;10.32;5.80;;;;;;;;;;5020760;28;20125;-70
2022/07/07 03:05:17;;;;;;;8.60;5.65;;;;;;;;;;4996258;28;20057;-70
2022/07/07 03:07:43;;;;;;;9.98;5.80;;;;;;;;;;5009981;28;20041;-70
2022/07/07 03:10:09;;;;;;;7.10;5.30;;;;;;;;;;5002240;28;20100;-70
2022/07/07 03:12:35;;;;;;;7.97;5.82;;;;;;;;;;5018111;28;20405;-70
2022/07/07 03:15:01;;;;;;;11.90;5.70;;;;;;;;;;5008294;28;20049;-71
2022/07/07 03:17:27;;;;;;;8.77;5.55;;;;;;;;;;5019396;28;20084;-70
2022/07/07 03:19:53;;;;;;;8.32;5.35;;;;;;;;;;4988550;28;20096;-71
2022/07/07 03:22:19;;;;;;;9.88;5.85;;;;;;;;;;5003373;28;20049;-70
2022/07/07 03:24:45;;;;;;;7.40;5.75;;;;;;;;;;5009394;28;20049;-70
2022/07/07 03:27:11;;;;;;;8.15;5.63;;;;;;;;;;5017943;28;20414;-70
2022/07/07 03:29:38;;;;;;;11.85;6.10;;;;;;;;;;5020694;28;20521;-70
2022/07/07 03:32:04;;;;;;;8.70;6.10;;;;;;;;;;5002583;28;20050;-71
2022/07/07 03:34:31;;;;;;;9.82;7.07;;;;;;;;;;5013471;28;20053;-70
2022/07/07 03:36:57;;;;;;;12.57;7.72;;;;;;;;;;5019554;28;20397;-70
2022/07/07 03:39:23;;;;;;;12.68;7.30;;;;;;;;;;5015583;28;20129;-70
2022/07/07 03:41:49;;;;;;;10.55;7.45;;;;;;;;;;5006088;28;20083;-71
2022/07/07 03:44:15;;;;;;;9.18;7.53;;;;;;;;;;5003878;28;20115;-70
2022/07/07 03:46:41;;;;;;;11.73;6.40;;;;;;;;;;5000819;28;20046;-70
2022/07/07 03:49:07;;;;;;;8.93;6.68;;;;;;;;;;4998949;28;20524;-70
2022/07/07 03:51:33;;;;;;;9.00;6.82;;;;;;;;;;5004808;28;20062;-70
2022/07/07 03:53:59;;;;;;;12.68;6.50;;;;;;;;;;5019063;28;20057;-71
2022/07/07 03:56:25;;;;;;;13.40;5.82;;;;;;;;;;5000907;28;20095;-70
2022/07/07 03:58:51;;;;;;;9.57;5.05;;;;;;;;;;5017052;28;20498;-71
2022/07/07 04:01:17;;;;;;;13.77;4.97;;;;;;;;;;5003121;28;20072;-71
2022/07/07 04:03:43;;;;;;;10.15;5.35;;;;;;;;;;5019027;28;20138;-71
2022/07/07 04:06:09;;;;;;;11.73;5.20;;;;;;;;;;4999664;28;20053;-71
2022/07/07 04:08:35;;;;;;;13.15;5.65;;;;;;;;;;5007687;28;20136;-71
2022/07/07 04:11:01;;;;;;;10.50;4.65;;;;;;;;;;5021863;28;20050;-71
2022/07/07 04:13:27;;;;;;;10.52;4.55;;;;;;;;;;4993931;28;20097;-71
2022/07/07 04:15:53;;;;;;;10.93;4.32;;;;;;;;;;5019090;28;20081;-71
2022/07/07 04:18:19;;;;;;;12.15;4.53;;;;;;;;;;5020117;28;20460;-71
2022/07/07 04:20:45;;;;;;;16.55;6.15;;;;;;;;;;5009917;28;20510;-71
2022/07/07 04:23:11;;;;;;;9.88;4.50;;;;;;;;;;5003317;28;20053;-70
2022/07/07 04:25:37;;;;;;;10.18;4.82;;;;;;;;;;4998934;28;20449;-70
2022/07/07 04:28:03;;;;;;;10.60;4.53;;;;;;;;;;5020635;28;20045;-71
2022/07/07 04:30:29;;;;;;;12.45;4.53;;;;;;;;;;5004567;28;20095;-71
2022/07/07 04:32:55;;;;;;;9.45;4.07;;;;;;;;;;4995876;28;20050;-70
2022/07/07 04:35:21;;;;;;;6.15;3.80;;;;;;;;;;4999934;28;20053;-71
2022/07/07 04:37:47;;;;;;;12.05;3.80;;;;;;;;;;5002331;28;20434;-71
2022/07/07 04:40:13;;;;;;;11.02;4.05;;;;;;;;;;5001667;28;20124;-71
2022/07/07 04:42:39;;;;;;;7.85;2.63;;;;;;;;;;5003446;28;20426;-72
2022/07/07 04:45:05;;;;;;;3.33;2.00;;;;;;;;;;4999005;28;20046;-72
2022/07/07 04:47:31;;;;;;;5.32;2.25;;;;;;;;;;5015833;28;20058;-71
2022/07/07 04:49:57;;;;;;;10.48;2.20;;;;;;;;;;5005463;28;20446;-72
2022/07/07 04:52:23;;;;;;;6.50;1.88;;;;;;;;;;4993432;28;20050;-72
2022/07/07 04:54:49;;;;;;;9.35;2.47;;;;;;;;;;5002244;28;20045;-71
2022/07/07 04:57:15;;;;;;;5.32;1.80;;;;;;;;;;5004794;28;20057;-70
2022/07/07 04:59:41;;;;;;;6.60;1.60;;;;;;;;;;5001900;28;20053;-72
2022/07/07 05:02:07;;;;;;;15.82;3.70;;;;;;;;;;4999384;28;20084;-71
2022/07/07 05:04:33;;;;;;;13.73;3.17;;;;;;;;;;4979934;28;20045;-71
2022/07/07 05:06:59;;;;;;;7.68;1.80;;;;;;;;;;5022187;28;20054;-71
2022/07/07 05:09:25;;;;;;;10.10;2.47;;;;;;;;;;5016321;28;20132;-70
2022/07/07 05:11:51;;;;;;;9.80;1.55;;;;;;;;;;5001646;28;20393;-70
2022/07/07 05:14:17;;;;;;;14.32;3.42;;;;;;;;;;5015006;28;20026;-71
2022/07/07 05:16:43;;;;;;;7.93;2.00;;;;;;;;;;4999065;28;20553;-71
2022/07/07 05:19:09;;;;;;;9.60;1.90;;;;;;;;;;4996985;28;20177;-71
2022/07/07 05:21:35;;;;;;;38.05;8.23;;;;;;;;;;5001528;28;20143;-71
2022/07/07 05:24:01;;;;;;;16.42;3.55;;;;;;;;;;4994061;28;20507;-71
2022/07/07 05:26:27;;;;;;;27.65;6.45;;;;;;;;;;5015872;28;20038;-71
2022/07/07 05:28:53;;;;;;;25.42;5.90;;;;;;;;;;5005996;28;20537;-71
2022/07/07 05:31:19;;;;;;;9.70;2.17;;;;;;;;;;5003129;28;20054;-71
2022/07/07 05:33:45;;;;;;;15.38;3.13;;;;;;;;;;5020925;28;20044;-71
2022/07/07 05:36:11;;;;;;;10.82;1.67;;;;;;;;;;5012999;28;20388;-71
2022/07/07 05:38:37;;;;;;;10.23;1.85;;;;;;;;;;4982563;28;20467;-71
2022/07/07 05:41:03;;;;;;;10.55;3.10;;;;;;;;;;5016024;28;20046;-72
2022/07/07 05:43:29;;;;;;;8.77;1.50;;;;;;;;;;5022587;28;20054;-71
2022/07/07 05:45:55;;;;;;;11.55;2.35;;;;;;;;;;4995707;28;20064;-70
2022/07/07 05:48:21;;;;;;;11.75;1.90;;;;;;;;;;5003831;28;20041;-70
2022/07/07 05:50:47;;;;;;;10.52;1.88;;;;;;;;;;5003506;28;20064;-71
2022/07/07 05:53:13;;;;;;;13.25;3.63;;;;;;;;;;5005577;28;20054;-71
2022/07/07 05:55:39;;;;;;;10.10;1.38;;;;;;;;;;4994146;28;20100;-70
2022/07/07 05:58:06;;;;;;;5.70;1.60;;;;;;;;;;5001694;28;20049;-70
2022/07/07 06:00:32;;;;;;;9.77;2.25;;;;;;;;;;5003905;28;20130;-71
2022/07/07 06:02:58;;;;;;;6.65;1.40;;;;;;;;;;5018371;28;20126;-70
2022/07/07 06:05:24;;;;;;;6.45;1.33;;;;;;;;;;4993837;28;20060;-71
2022/07/07 06:07:50;;;;;;;10.77;1.85;;;;;;;;;;5010212;28;20041;-71
2022/07/07 06:10:16;;;;;;;9.70;1.75;;;;;;;;;;5025724;28;20447;-69
2022/07/07 06:12:43;;;;;;;7.07;1.60;;;;;;;;;;5006512;28;20045;-70
2022/07/07 06:15:09;;;;;;;10.75;1.88;;;;;;;;;;5025272;28;20037;-71
2022/07/07 06:17:35;;;;;;;8.27;1.95;;;;;;;;;;5028035;28;20048;-71
2022/07/07 06:20:02;;;;;;;11.70;2.60;;;;;;;;;;5028625;28;20037;-72
2022/07/07 06:22:28;;;;;;;16.70;2.60;;;;;;;;;;5011101;28;20048;-71
2022/07/07 06:24:55;;;;;;;13.40;2.22;;;;;;;;;;4994555;28;20041;-72
2022/07/07 06:27:21;;;;;;;12.27;2.53;;;;;;;;;;5029262;28;20037;-72
2022/07/07 06:29:47;;;;;;;12.15;1.95;;;;;;;;;;4996042;28;20041;-70
2022/07/07 06:32:16;;;;;;;13.18;2.60;;;;;;;;;;4997289;28;20049;-72
2022/07/07 06:34:43;;;;;;;8.18;1.83;;;;;;;;;;5010853;28;20096;-71
2022/07/07 06:37:09;;;;;;;9.70;2.00;;;;;;;;;;5029487;28;20057;-70
2022/07/07 06:39:35;;;;;;;23.55;5.13;;;;;;;;;;5029722;28;20482;-71
2022/07/07 06:42:01;;;;;;;15.77;3.40;;;;;;;;;;5011303;28;20057;-70
2022/07/07 06:44:30;;;;;;;7.30;1.88;;;;;;;;;;5009752;28;20046;-71
2022/07/07 06:46:58;;;;;;;11.20;2.17;;;;;;;;;;5009888;28;20107;-70
2022/07/07 06:49:24;;;;;;;5.43;1.73;;;;;;;;;;5027734;28;20061;-71
2022/07/07 06:51:50;;;;;;;10.75;2.15;;;;;;;;;;5022970;28;20056;-70
2022/07/07 06:54:16;;;;;;;7.35;1.70;;;;;;;;;;5005042;28;20116;-71
2022/07/07 06:56:42;;;;;;;10.75;2.35;;;;;;;;;;4988190;28;20129;-72
2022/07/07 06:59:08;;;;;;;6.53;1.45;;;;;;;;;;5021879;28;20430;-71
2022/07/07 07:01:35;;;;;;;9.70;1.35;;;;;;;;;;5011042;28;20056;-71
2022/07/07 07:04:01;;;;;;;10.27;2.08;;;;;;;;;;5009532;28;20038;-71
2022/07/07 07:06:30;;;;;;;11.98;2.20;;;;;;;;;;5027417;28;20445;-70
2022/07/07 07:08:58;;;;;;;8.95;2.03;;;;;;;;;;5026799;28;20038;-71
2022/07/07 07:11:24;;;;;;;8.00;1.60;;;;;;;;;;5010594;28;20045;-71
2022/07/07 07:13:50;;;;;;;8.98;1.70;;;;;;;;;;5028092;28;20041;-71
2022/07/07 07:16:17;;;;;;;10.15;1.77;;;;;;;;;;5011064;28;20132;-70
2022/07/07 07:18:43;;;;;;;6.55;1.55;;;;;;;;;;5025240;28;20041;-71
2022/07/07 07:21:09;;;;;;;12.50;2.92;;;;;;;;;;5011075;28;20043;-71
2022/07/07 07:23:37;;;;;;;6.45;1.30;;;;;;;;;;5007468;28;20207;-70
2022/07/07 07:26:03;;;;;;;7.75;1.75;;;;;;;;;;5012709;28;20050;-70
2022/07/07 07:28:29;;;;;;;24.70;6.00;;;;;;;;;;5024815;28;20053;-72
2022/07/07 07:30:55;;;;;;;10.07;2.75;;;;;;;;;;5021070;28;20037;-69
2022/07/07 07:33:21;;;;;;;4.18;1.15;;;;;;;;;;5003627;28;20061;-69
2022/07/07 07:35:47;;;;;;;8.02;1.63;;;;;;;;;;5026493;28;20041;-69
2022/07/07 07:38:13;;;;;;;10.68;2.75;;;;;;;;;;5008677;28;20095;-70
2022/07/07 07:40:39;;;;;;;4.25;0.77;;;;;;;;;;5018763;28;20037;-70
2022/07/07 07:43:05;;;;;;;6.30;1.20;;;;;;;;;;4998938;28;20560;-71
2022/07/07 07:45:31;;;;;;;6.03;1.25;;;;;;;;;;5020764;28;20053;-71
2022/07/07 07:47:57;;;;;;;8.20;1.27;;;;;;;;;;5017261;28;20121;-70
2022/07/07 07:50:24;;;;;;;5.45;0.80;;;;;;;;;;4999658;28;20137;-70
2022/07/07 07:52:50;;;;;;;8.32;1.33;;;;;;;;;;5000950;28;20469;-69
2022/07/07 07:55:17;;;;;;;5.30;0.70;;;;;;;;;;5009784;28;20042;-71
2022/07/07 07:57:43;;;;;;;5.15;1.02;;;;;;;;;;5016813;28;20050;-71
2022/07/07 08:00:11;;;;;;;4.05;0.85;;;;;;;;;;5010943;28;20053;-70
2022/07/07 08:02:37;;;;;;;3.17;1.10;;;;;;;;;;5018661;28;20410;-70
2022/07/07 08:05:03;;;;;;;8.23;1.38;;;;;;;;;;5017353;28;20057;-71
2022/07/07 08:07:30;;;;;;;3.40;0.95;;;;;;;;;;5003381;28;20067;-70
2022/07/07 08:09:56;;;;;;;3.40;1.23;;;;;;;;;;5002779;28;20053;-70
2022/07/07 08:12:22;;;;;;;5.80;1.70;;;;;;;;;;4995647;28;20049;-70
2022/07/07 08:14:48;;;;;;;4.13;1.25;;;;;;;;;;5016403;28;20056;-71
2022/07/07 08:17:14;;;;;;;3.90;0.82;;;;;;;;;;5020783;28;20045;-71
2022/07/07 08:19:40;;;;;;;3.83;0.95;;;;;;;;;;5009846;28;20486;-71
2022/07/07 08:22:06;;;;;;;6.32;1.52;;;;;;;;;;5016649;28;20042;-72
2022/07/07 08:24:32;;;;;;;5.65;1.13;;;;;;;;;;5006623;28;20120;-71
2022/07/07 08:26:58;;;;;;;3.92;0.80;;;;;;;;;;5005079;28;20046;-71
2022/07/07 08:29:24;;;;;;;4.43;1.00;;;;;;;;;;5013307;28;20372;-70
2022/07/07 08:31:50;;;;;;;6.07;0.82;;;;;;;;;;5003133;28;20091;-70
2022/07/07 08:34:16;;;;;;;5.00;1.00;;;;;;;;;;5006072;28;20054;-69
2022/07/07 08:36:42;;;;;;;4.78;0.88;;;;;;;;;;4998291;28;20122;-69
2022/07/07 08:39:08;;;;;;;4.40;0.90;;;;;;;;;;5002294;28;20081;-70
2022/07/07 08:41:34;;;;;;;4.38;1.15;;;;;;;;;;4983978;28;20421;-69
2022/07/07 08:44:00;;;;;;;3.03;0.90;;;;;;;;;;5016502;28;20046;-70
2022/07/07 08:46:26;;;;;;;1.92;0.63;;;;;;;;;;5005508;28;20460;-70
2022/07/07 08:48:53;;;;;;;5.82;1.30;;;;;;;;;;5022495;28;20085;-71
2022/07/07 08:51:21;;;;;;;3.05;1.10;;;;;;;;;;4979954;28;20058;-70
2022/07/07 08:53:47;;;;;;;3.05;0.95;;;;;;;;;;4999143;28;20053;-69
2022/07/07 08:56:14;;;;;;;2.25;0.73;;;;;;;;;;4988354;28;20053;-69
2022/07/07 08:58:41;;;;;;;3.60;1.23;;;;;;;;;;5019579;28;20129;-69
2022/07/07 09:01:07;;;;;;;5.68;1.40;;;;;;;;;;5012583;28;20069;-70
2022/07/07 09:03:33;;;;;;;5.30;0.70;;;;;;;;;;5006340;28;20050;-70
2022/07/07 09:06:00;;;;;;;3.85;1.50;;;;;;;;;;4992155;28;20049;-70
2022/07/07 09:08:26;;;;;;;5.75;1.92;;;;;;;;;;5017322;28;20052;-71
2022/07/07 09:10:53;;;;;;;5.95;1.73;;;;;;;;;;4977208;28;20046;-71
2022/07/07 09:13:26;;;;;;;9.95;2.67;;;;;;;;;;5002235;28;20052;-71
2022/07/07 09:16:12;;;;;;;4.10;1.17;;;;;;;;;;5003199;28;20056;-70
2022/07/07 09:18:40;;;;;;;4.65;1.42;;;;;;;;;;5020333;28;20160;-71
2022/07/07 09:21:07;;;;;;;11.18;2.35;;;;;;;;;;5013880;28;20057;-71
2022/07/07 09:23:34;;;;;;;5.45;1.40;;;;;;;;;;5000118;28;20053;-71
2022/07/07 09:26:00;;;;;;;10.93;3.10;;;;;;;;;;5020600;28;20470;-71
2022/07/07 09:28:26;;;;;;;5.78;1.48;;;;;;;;;;5000722;28;20050;-71
2022/07/07 09:30:53;;;;;;;4.15;1.15;;;;;;;;;;4995657;28;20419;-70
2022/07/07 09:33:20;;;;;;;5.00;1.52;;;;;;;;;;5016574;28;20451;-70
2022/07/07 09:38:32;;;;;;;2.35;0.93;;;;;;;;;;5002039;28;20053;-72
2022/07/07 09:41:03;;;;;;;6.47;1.02;;;;;;;;;;5016403;28;20057;-71
2022/07/07 09:43:33;;;;;;;7.97;1.35;;;;;;;;;;4998002;28;20096;-71
2022/07/07 09:46:16;;;;;;;5.88;1.40;;;;;;;;;;4998619;28;20049;-71
2022/07/07 09:48:44;;;;;;;7.53;1.20;;;;;;;;;;5017568;28;20517;-71
2022/07/07 09:51:30;;;;;;;4.07;1.00;;;;;;;;;;5000525;28;20058;-71
2022/07/07 09:53:59;;;;;;;3.53;0.95;;;;;;;;;;5001033;28;20054;-71
2022/07/07 09:56:27;;;;;;;5.47;1.27;;;;;;;;;;5012439;28;20137;-71
2022/07/07 09:58:53;;;;;;;4.28;1.27;;;;;;;;;;4998730;28;20553;-72
2022/07/07 10:01:24;;;;;;;4.90;1.52;;;;;;;;;;5005837;28;20054;-71
2022/07/07 10:03:51;;;;;;;6.85;1.45;;;;;;;;;;5017448;28;20602;-71
2022/07/07 10:06:17;;;;;;;5.88;1.20;;;;;;;;;;4993365;28;20050;-72
2022/07/07 10:08:43;;;;;;;5.88;1.58;;;;;;;;;;5017212;28;20272;-72
2022/07/07 10:11:10;;;;;;;16.08;4.55;;;;;;;;;;5021301;28;20471;-72
2022/07/07 10:13:37;;;;;;;4.50;1.30;;;;;;;;;;5021053;28;20046;-71
2022/07/07 10:16:06;;;;;;;6.25;1.27;;;;;;;;;;4994848;28;20049;-72
2022/07/07 10:18:32;;;;;;;4.00;1.33;;;;;;;;;;5023487;28;20053;-71
2022/07/07 10:20:59;;;;;;;3.65;1.10;;;;;;;;;;5002649;28;20045;-71
2022/07/07 10:23:25;;;;;;;9.55;1.90;;;;;;;;;;5008548;28;20057;-71
2022/07/07 10:26:04;;;;;;;8.00;2.25;;;;;;;;;;5003852;28;20042;-70
2022/07/07 10:28:51;;;;;;;4.93;1.27;;;;;;;;;;5007193;28;20041;-72
2022/07/07 10:31:28;;;;;;;5.22;1.70;;;;;;;;;;4993195;28;20049;-71
2022/07/07 10:33:54;;;;;;;7.20;2.40;;;;;;;;;;4998429;28;20077;-70
2022/07/07 10:36:20;;;;;;;3.63;1.25;;;;;;;;;;4995914;28;20067;-71
2022/07/07 10:38:51;;;;;;;5.40;1.10;;;;;;;;;;5015853;28;20120;-70
2022/07/07 10:41:22;;;;;;;3.47;1.10;;;;;;;;;;5019006;28;20068;-69
2022/07/07 10:43:54;;;;;;;3.42;1.40;;;;;;;;;;5001085;28;20107;-69
2022/07/07 10:46:20;;;;;;;7.07;1.50;;;;;;;;;;5000872;28;20053;-70
2022/07/07 10:48:47;;;;;;;3.72;1.27;;;;;;;;;;5013816;28;20069;-70
2022/07/07 10:51:22;;;;;;;4.85;1.55;;;;;;;;;;5015053;28;20065;-70
2022/07/07 10:54:06;;;;;;;8.50;1.88;;;;;;;;;;5003416;28;20050;-71
2022/07/07 10:56:51;;;;;;;7.00;2.00;;;;;;;;;;5000716;28;20081;-70
2022/07/07 10:59:17;;;;;;;5.45;1.38;;;;;;;;;;5005579;28;20053;-70
2022/07/07 11:02:01;;;;;;;6.85;2.33;;;;;;;;;;5019481;28;20049;-70
2022/07/07 11:04:43;;;;;;;8.13;2.20;;;;;;;;;;4995981;28;20056;-71
2022/07/07 11:07:12;;;;;;;3.28;1.13;;;;;;;;;;4998234;28;20077;-71
2022/07/07 11:09:57;;;;;;;6.85;1.55;;;;;;;;;;5007071;28;20049;-70
2022/07/07 11:12:36;;;;;;;4.60;1.30;;;;;;;;;;5001607;28;20494;-71
2022/07/07 11:15:14;;;;;;;4.30;1.13;;;;;;;;;;5017857;28;20045;-71
2022/07/07 11:17:44;;;;;;;5.20;1.15;;;;;;;;;;5023139;28;20088;-70
2022/07/07 11:20:13;;;;;;;6.15;1.40;;;;;;;;;;5000866;28;20061;-72
2022/07/07 11:22:46;;;;;;;10.25;2.70;;;;;;;;;;5016590;28;20081;-71
2022/07/07 11:25:13;;;;;;;11.25;2.05;;;;;;;;;;5009519;28;20045;-71
2022/07/07 11:27:39;;;;;;;5.88;1.60;;;;;;;;;;5022281;28;20041;-70
2022/07/07 11:30:05;;;;;;;6.70;1.58;;;;;;;;;;5001279;28;20499;-71
2022/07/07 11:32:38;;;;;;;8.45;1.70;;;;;;;;;;5001662;28;20054;-70
2022/07/07 11:35:05;;;;;;;18.77;2.03;;;;;;;;;;5001110;28;20057;-71
2022/07/07 11:37:31;;;;;;;13.05;2.55;;;;;;;;;;5018218;28;20045;-71
2022/07/07 11:39:58;;;;;;;13.35;2.17;;;;;;;;;;5000827;28;20081;-71
2022/07/07 11:42:34;;;;;;;10.57;2.33;;;;;;;;;;4996864;28;20053;-71
2022/07/07 11:45:00;;;;;;;16.17;2.55;;;;;;;;;;5018695;28;20045;-70
2022/07/07 11:47:26;;;;;;;11.57;2.40;;;;;;;;;;5017308;28;20502;-71
2022/07/07 11:49:55;;;;;;;9.93;2.08;;;;;;;;;;5018307;28;20250;-70
2022/07/07 11:52:21;;;;;;;;;;;;;;;;;;5020571;28;20515;-71
2022/07/07 11:54:48;;;;;;;13.40;2.40;;;;;;;;;;5021550;28;19921;-73
2022/07/07 11:57:27;;;;;;;19.08;2.65;;;;;;;;;;5002143;28;20049;-72
2022/07/07 11:59:53;;;;;;;18.20;2.75;;;;;;;;;;5021371;28;20049;-70
2022/07/07 12:02:20;;;;;;;19.95;2.70;;;;;;;;;;5015431;28;20045;-71
2022/07/07 12:04:46;;;;;;;14.38;2.50;;;;;;;;;;4983654;28;20053;-71
2022/07/07 12:07:12;;;;;;;15.65;3.17;;;;;;;;;;5007135;28;20052;-72
2022/07/07 12:09:44;;;;;;;9.20;2.35;;;;;;;;;;5005130;28;20056;-71
2022/07/07 12:12:16;;;;;;;14.95;2.45;;;;;;;;;;4996564;28;20056;-72
2022/07/07 12:14:43;;;;;;;11.40;2.15;;;;;;;;;;4995736;28;20042;-71
2022/07/07 12:17:09;;;;;;;12.95;2.92;;;;;;;;;;5019917;28;20494;-71
2022/07/07 12:19:45;;;;;;;16.80;2.90;;;;;;;;;;5002816;28;20085;-70
2022/07/07 12:22:12;;;;;;;17.25;2.38;;;;;;;;;;5014064;28;20042;-70
2022/07/07 12:24:38;;;;;;;13.85;2.17;;;;;;;;;;5020140;28;20053;-71
2022/07/07 12:27:04;;;;;;;10.40;2.65;;;;;;;;;;5022787;28;20041;-71
2022/07/07 12:29:30;;;;;;;14.07;1.80;;;;;;;;;;5020646;28;20067;-71
2022/07/07 12:31:56;;;;;;;9.35;1.75;;;;;;;;;;4999143;28;20049;-71
2022/07/07 12:34:23;;;;;;;12.00;2.05;;;;;;;;;;5002240;28;20111;-71
2022/07/07 12:36:49;;;;;;;11.10;2.42;;;;;;;;;;4994400;28;20049;-71
2022/07/07 12:39:16;;;;;;;9.98;2.60;;;;;;;;;;5011757;28;20041;-72
2022/07/07 12:41:42;;;;;;;6.20;1.45;;;;;;;;;;5019375;28;20057;-72
2022/07/07 12:44:30;;;;;;;31.48;7.53;;;;;;;;;;5002685;28;20091;-71
2022/07/07 12:46:58;;;;;;;20.25;4.93;;;;;;;;;;5023204;28;20057;-71
2022/07/07 12:49:24;;;;;;;13.02;2.60;;;;;;;;;;5010468;28;20538;-71
2022/07/07 12:51:51;;;;;;;10.20;2.65;;;;;;;;;;5001029;28;20507;-71
2022/07/07 12:54:30;;;;;;;9.35;2.15;;;;;;;;;;5005230;28;20037;-71
2022/07/07 12:57:07;;;;;;;9.40;2.00;;;;;;;;;;5001222;28;20046;-71
2022/07/07 12:59:37;;;;;;;14.50;2.35;;;;;;;;;;5005462;28;20046;-70
2022/07/07 13:02:03;;;;;;;11.98;2.05;;;;;;;;;;5015790;28;20056;-72
2022/07/07 13:04:29;;;;;;;13.15;2.67;;;;;;;;;;5006955;28;20591;-72
2022/07/07 13:06:55;;;;;;;10.65;1.85;;;;;;;;;;5012203;28;20145;-71
2022/07/07 13:09:21;;;;;;;7.43;1.80;;;;;;;;;;5006687;28;20045;-71
2022/07/07 13:11:51;;;;;;;11.60;2.00;;;;;;;;;;5008399;28;20077;-72
2022/07/07 13:14:18;;;;;;;8.32;1.65;;;;;;;;;;4994099;28;20482;-72
2022/07/07 13:16:44;;;;;;;7.93;2.03;;;;;;;;;;5008234;28;20049;-71
2022/07/07 13:19:09;;;;;;;9.15;1.67;;;;;;;;;;5028075;28;20120;-72
2022/07/07 13:21:35;;;;;;;11.85;2.17;;;;;;;;;;5024406;28;20422;-71
2022/07/07 13:24:01;;;;;;;12.73;2.10;;;;;;;;;;5008543;28;20045;-71
2022/07/07 13:26:27;;;;;;;9.13;2.22;;;;;;;;;;5010690;28;20049;-70
2022/07/07 13:28:53;;;;;;;11.30;2.53;;;;;;;;;;5008788;28;20056;-71
2022/07/07 13:31:20;;;;;;;11.82;2.33;;;;;;;;;;5003309;28;20506;-71
2022/07/07 13:33:46;;;;;;;10.80;2.50;;;;;;;;;;5008466;28;20839;-71
2022/07/07 13:36:12;;;;;;;22.33;4.35;;;;;;;;;;5008995;28;20092;-71
2022/07/07 13:38:38;;;;;;;11.50;2.15;;;;;;;;;;5027105;28;20120;-71
2022/07/07 13:41:04;;;;;;;9.38;2.20;;;;;;;;;;5007516;28;20078;-71
2022/07/07 13:43:30;;;;;;;8.65;2.08;;;;;;;;;;5007239;28;20060;-71
2022/07/07 13:45:56;;;;;;;11.40;2.10;;;;;;;;;;5009101;28;20490;-71
2022/07/07 13:48:28;;;;;;;6.60;1.85;;;;;;;;;;5006777;28;20041;-71
2022/07/07 13:50:54;;;;;;;9.48;2.20;;;;;;;;;;5003510;28;20106;-72
2022/07/07 13:53:20;;;;;;;12.57;2.50;;;;;;;;;;5005855;28;20061;-72
2022/07/07 13:55:46;;;;;;;11.80;1.90;;;;;;;;;;5026003;28;20042;-70
2022/07/07 13:58:13;;;;;;;11.45;2.50;;;;;;;;;;5009261;28;20565;-71
2022/07/07 14:00:39;;;;;;;14.98;2.75;;;;;;;;;;5004575;28;20041;-70
2022/07/07 14:03:05;;;;;;;11.52;1.88;;;;;;;;;;5006654;28;20482;-72
2022/07/07 14:05:31;;;;;;;12.20;2.30;;;;;;;;;;5025265;28;20491;-71
2022/07/07 14:07:57;;;;;;;17.13;3.38;;;;;;;;;;5024762;28;20455;-71
2022/07/07 14:10:23;;;;;;;14.65;3.30;;;;;;;;;;5022258;28;20125;-71
2022/07/07 14:12:49;;;;;;;11.98;2.35;;;;;;;;;;5022656;28;20116;-72
2022/07/07 14:15:16;;;;;;;12.68;2.58;;;;;;;;;;5027683;28;20069;-71
2022/07/07 14:17:42;;;;;;;10.95;1.95;;;;;;;;;;4989926;28;20041;-71
2022/07/07 14:20:08;;;;;;;10.15;1.60;;;;;;;;;;5006564;28;20137;-71
2022/07/07 14:22:34;;;;;;;12.07;2.45;;;;;;;;;;5007727;28;20053;-71
2022/07/07 14:25:00;;;;;;;12.18;2.33;;;;;;;;;;5025717;28;20049;-71
2022/07/07 14:27:27;;;;;;;11.57;2.28;;;;;;;;;;5024859;28;20148;-71
2022/07/07 14:29:54;;;;;;;13.38;2.60;;;;;;;;;;5026360;28;20120;-71
2022/07/07 14:32:20;;;;;;;11.50;2.22;;;;;;;;;;5027336;28;20056;-71
2022/07/07 14:34:46;;;;;;;8.82;1.88;;;;;;;;;;5026294;28;20124;-71
2022/07/07 14:37:12;;;;;;;15.90;3.05;;;;;;;;;;5005932;28;20135;-71